Time;durP1;ratioP1;P1;durP2;ratioP2;P2;SDS_P1;SDS_P2;PMS_P1;PMS_P2;Temp;Humidity;BMP_temperature;BMP_pressure;BME280_temperature;BME280_humidity;BME280_pressure;Samples;Min_cycle;Max_cycle;Signal;HPM_P1;HPM_P2
2022/06/07 00:01:07;;;;;;;13.60;7.80;;;;;;;13.24;87.35;101161.59;107771;1243;61572;-70
2022/06/07 00:03:36;;;;;;;10.90;7.80;;;;;;;13.17;86.88;101159.85;107785;1243;61619;-70
2022/06/07 00:06:06;;;;;;;11.10;8.10;;;;;;;13.09;87.46;101158.22;107922;1243;74461;-74
2022/06/07 00:08:35;;;;;;;10.50;8.00;;;;;;;13.03;87.67;101156.55;107751;1243;71930;-74
2022/06/07 00:11:04;;;;;;;9.60;8.00;;;;;;;12.99;87.98;101152.14;107700;1243;68083;-71
2022/06/07 00:13:33;;;;;;;12.30;7.90;;;;;;;13.05;88.29;101152.05;107812;1243;71974;-72
2022/06/07 00:16:02;;;;;;;10.20;7.80;;;;;;;13.05;87.92;101148.94;107749;1243;60565;-70
2022/06/07 00:18:31;;;;;;;11.90;7.60;;;;;;;13.00;87.82;101150.12;107670;1243;59474;-69
2022/06/07 00:21:01;;;;;;;11.70;7.20;;;;;;;12.96;87.91;101147.77;107691;1245;72486;-69
2022/06/07 00:23:31;;;;;;;10.70;7.60;;;;;;;12.98;88.12;101142.55;107773;1243;72376;-67
2022/06/07 00:26:00;;;;;;;13.40;7.70;;;;;;;12.99;87.87;101146.90;107710;1243;72226;-67
2022/06/07 00:28:29;;;;;;;11.10;7.40;;;;;;;12.94;87.98;101145.86;107778;1246;71576;-68
2022/06/07 00:30:59;;;;;;;11.00;7.80;;;;;;;12.91;88.13;101147.97;107838;1243;63337;-70
2022/06/07 00:33:28;;;;;;;10.80;8.30;;;;;;;12.88;87.43;101147.87;107680;1243;61748;-68
2022/06/07 00:35:57;;;;;;;12.10;8.00;;;;;;;12.83;85.99;101148.24;107651;1243;74090;-68
2022/06/07 00:38:26;;;;;;;11.70;8.60;;;;;;;12.81;88.72;101147.73;107828;1243;70795;-69
2022/06/07 00:40:55;;;;;;;10.70;7.90;;;;;;;12.85;89.60;101150.92;107754;1243;70602;-68
2022/06/07 00:43:24;;;;;;;10.30;7.50;;;;;;;13.13;88.44;101148.80;107776;1243;73581;-68
2022/06/07 00:45:53;;;;;;;10.70;8.50;;;;;;;13.07;87.43;101149.58;107636;1244;61251;-71
2022/06/07 00:48:24;;;;;;;11.30;8.30;;;;;;;12.98;87.59;101145.71;107856;1243;59017;-71
2022/06/07 00:51:04;;;;;;;11.80;8.00;;;;;;;12.89;87.83;101141.88;107842;1243;73670;-71
2022/06/07 00:53:36;;;;;;;13.10;8.30;;;;;;;12.79;87.86;101140.37;107920;1242;72662;-72
2022/06/07 00:56:27;;;;;;;10.00;7.90;;;;;;;12.71;87.54;101136.06;107762;1243;70564;-72
2022/06/07 00:59:00;;;;;;;11.80;8.50;;;;;;;12.61;87.84;101139.73;107611;1243;72816;-71
2022/06/07 01:01:31;;;;;;;13.70;9.10;;;;;;;12.55;89.12;101142.66;107510;1243;62776;-69
2022/06/07 01:04:00;;;;;;;13.70;9.00;;;;;;;12.52;89.96;101143.21;107518;1244;59479;-69
2022/06/07 04:53:58;;;;;;;23.90;18.40;;;;;;;14.15;87.50;101120.17;105163;1286;600026;-85
2022/06/07 04:56:33;;;;;;;27.80;17.00;;;;;;;14.32;87.73;101128.45;107610;1254;61854;-75
2022/06/07 04:59:05;;;;;;;22.40;16.50;;;;;;;14.57;86.97;101130.25;107391;1254;59413;-79
2022/06/07 05:01:39;;;;;;;22.00;15.90;;;;;;;14.75;86.94;101131.72;107518;1251;69248;-76
2022/06/07 05:04:12;;;;;;;20.00;14.20;;;;;;;14.92;86.51;101133.13;107327;1254;72004;-71
2022/06/07 05:06:43;;;;;;;19.30;13.70;;;;;;;15.10;85.96;101137.20;108941;1253;325349;-70
2022/06/07 05:09:22;;;;;;;18.10;12.20;;;;;;;15.30;85.45;101138.63;108675;1254;74938;-67
2022/06/07 05:11:56;;;;;;;15.70;12.70;;;;;;;15.50;84.56;101133.83;108888;1254;62093;-68
2022/06/07 05:14:27;;;;;;;15.10;12.40;;;;;;;15.67;84.96;101137.91;109205;1254;59723;-67
2022/06/07 05:16:57;;;;;;;16.90;12.80;;;;;;;15.90;83.52;101137.02;109019;1254;72006;-69
2022/06/07 05:19:33;;;;;;;17.20;10.60;;;;;;;16.11;82.87;101134.45;106758;1254;71935;-65
2022/06/07 05:22:07;;;;;;;20.30;12.50;;;;;;;16.33;81.16;101137.36;107024;1254;70408;-69
2022/06/07 05:24:38;;;;;;;18.50;10.90;;;;;;;16.52;81.22;101134.45;106831;1254;71629;-70
2022/06/07 05:27:14;;;;;;;15.10;11.00;;;;;;;16.71;80.01;101129.54;106802;1256;61424;-66
2022/06/07 05:29:55;;;;;;;23.20;12.10;;;;;;;16.91;78.87;101128.04;108001;1254;60363;-69
2022/06/07 05:32:41;;;;;;;15.60;11.00;;;;;;;17.11;77.41;101128.16;107142;1253;73198;-64
2022/06/07 05:35:14;;;;;;;11.30;9.20;;;;;;;17.27;77.08;101131.73;107217;1251;70077;-66
2022/06/07 05:37:48;;;;;;;13.80;10.50;;;;;;;17.48;74.94;101132.42;107189;1251;68528;-66
2022/06/07 05:40:23;;;;;;;17.90;11.00;;;;;;;17.60;74.90;101134.91;107207;1254;72395;-66
2022/06/07 05:42:52;;;;;;;16.50;12.30;;;;;;;17.72;75.27;101134.36;107130;1251;60478;-69
2022/06/07 05:45:57;;;;;;;18.20;11.70;;;;;;;17.87;75.49;101138.86;107247;1251;59031;-68
2022/06/07 05:48:42;;;;;;;16.10;10.00;;;;;;;18.02;73.57;101140.80;107141;1254;61307;-75
2022/06/07 05:51:16;;;;;;;13.60;9.50;;;;;;;18.18;71.43;101139.88;107291;1251;71499;-80
2022/06/07 05:53:45;;;;;;;10.70;9.10;;;;;;;18.33;71.62;101136.73;107296;1251;60530;-74
2022/06/07 05:56:15;;;;;;;13.60;10.30;;;;;;;18.45;70.51;101138.48;107156;1250;73891;-75
2022/06/07 05:58:45;;;;;;;15.00;9.80;;;;;;;18.50;71.22;101135.06;107445;1251;57944;-73
2022/06/07 06:01:16;;;;;;;13.90;9.60;;;;;;;18.61;70.70;101136.91;107273;1250;58977;-75
2022/06/07 06:03:49;;;;;;;12.80;10.40;;;;;;;18.76;70.29;101132.30;107271;1251;62169;-73
2022/06/07 06:06:23;;;;;;;14.40;10.00;;;;;;;18.90;69.35;101131.46;107321;1251;71252;-75
2022/06/07 06:11:42;;;;;;;13.10;9.30;;;;;;;19.22;69.23;101125.48;107329;1251;74830;-70
2022/06/07 06:14:20;;;;;;;15.80;10.00;;;;;;;19.38;68.33;101123.28;107296;1251;61070;-73
2022/06/07 06:16:52;;;;;;;;;;;;;;;19.51;67.78;101120.85;107262;1250;61587;-75
2022/06/07 06:19:30;;;;;;;13.00;8.60;;;;;;;19.65;67.62;101118.63;107310;1251;62347;-72
2022/06/07 06:22:00;;;;;;;12.90;9.60;;;;;;;19.80;65.88;101114.15;107312;1250;60687;-74
2022/06/07 06:24:30;;;;;;;15.90;8.80;;;;;;;19.96;65.70;101116.11;107136;1251;68178;-74
2022/06/07 06:26:59;;;;;;;18.70;9.40;;;;;;;20.08;65.42;101112.42;107359;1251;63733;-74
2022/06/07 06:29:33;;;;;;;13.30;8.70;;;;;;;20.25;65.43;101112.02;107344;1250;60352;-73
2022/06/07 06:32:04;;;;;;;12.20;8.50;;;;;;;20.43;64.13;101110.32;107112;1253;57866;-77
2022/06/07 06:34:34;;;;;;;15.60;8.90;;;;;;;20.56;62.58;101105.89;107251;1253;71919;-72
2022/06/07 06:37:06;;;;;;;17.80;9.30;;;;;;;20.67;62.66;101097.48;107077;1251;71812;-79
2022/06/07 06:39:37;;;;;;;18.50;8.70;;;;;;;20.80;62.95;101095.36;107356;1251;59648;-73
2022/06/07 06:42:06;;;;;;;14.40;7.80;;;;;;;20.90;60.28;101093.92;107208;1251;74074;-76
2022/06/07 06:45:04;;;;;;;9.70;6.30;;;;;;;21.08;59.62;101093.77;107402;1250;59087;-74
2022/06/07 06:47:33;;;;;;;7.50;6.50;;;;;;;21.21;58.75;101091.35;107194;1251;60468;-74
2022/06/07 06:50:03;;;;;;;10.60;6.70;;;;;;;21.33;57.61;101093.19;107726;1246;62622;-76
2022/06/07 06:52:32;;;;;;;10.40;5.50;;;;;;;21.49;59.09;101092.97;107527;1247;61805;-72
2022/06/07 06:55:03;;;;;;;15.30;6.50;;;;;;;21.66;56.79;101093.92;107745;1247;59793;-77
2022/06/07 06:57:32;;;;;;;9.30;6.20;;;;;;;21.86;53.18;101092.35;107622;1247;72912;-74
2022/06/07 07:00:06;;;;;;;8.20;5.50;;;;;;;22.03;51.88;101088.91;107445;1247;60705;-76
2022/06/07 07:02:36;;;;;;;12.30;5.10;;;;;;;22.15;52.86;101089.48;107407;1248;60294;-75
2022/06/07 07:05:12;;;;;;;9.20;5.40;;;;;;;22.32;53.48;101087.20;107362;1247;73661;-76
2022/06/07 07:07:45;;;;;;;7.40;4.30;;;;;;;22.48;55.05;101090.00;107561;1247;62201;-77
2022/06/07 07:10:19;;;;;;;6.30;3.80;;;;;;;22.66;53.10;101094.11;107412;1248;59232;-75
2022/06/07 07:12:48;;;;;;;6.10;3.80;;;;;;;22.70;47.38;101091.48;107386;1247;62794;-75
2022/06/07 07:15:22;;;;;;;4.80;3.00;;;;;;;22.79;47.35;101091.62;107591;1247;58946;-76
2022/06/07 07:18:00;;;;;;;4.90;3.00;;;;;;;22.96;46.22;101087.02;107547;1247;57907;-76
2022/06/07 07:20:29;;;;;;;5.80;3.20;;;;;;;23.10;42.14;101081.23;107603;1248;72717;-76
2022/06/07 07:22:59;;;;;;;4.30;2.90;;;;;;;23.19;43.64;101074.74;107529;1247;73642;-78
2022/06/07 07:25:28;;;;;;;6.20;2.80;;;;;;;23.34;42.72;101078.36;107476;1247;59784;-76
2022/06/07 07:27:57;;;;;;;4.50;3.20;;;;;;;23.47;43.61;101076.06;107457;1248;62486;-71
2022/06/07 07:30:30;;;;;;;7.30;3.10;;;;;;;23.39;41.21;101074.28;107451;1247;57550;-76
2022/06/07 07:32:59;;;;;;;6.40;3.00;;;;;;;23.48;41.57;101071.45;107527;1247;59513;-73
2022/06/07 07:35:29;;;;;;;4.00;2.40;;;;;;;23.60;39.97;101068.93;107104;1248;64486;-73
2022/06/07 07:38:03;;;;;;;6.70;3.00;;;;;;;23.76;39.62;101070.33;107600;1251;61051;-75
2022/06/07 07:40:32;;;;;;;4.40;2.70;;;;;;;23.87;38.60;101066.02;107524;1247;69529;-78
2022/06/07 07:43:03;;;;;;;9.60;2.60;;;;;;;23.91;37.76;101072.98;107644;1248;73682;-73
2022/06/07 07:45:35;;;;;;;4.60;2.50;;;;;;;24.08;39.69;101077.42;107667;1247;60888;-74
2022/06/07 07:48:11;;;;;;;4.50;2.70;;;;;;;24.25;40.58;101078.81;107625;1247;59059;-74
2022/06/07 07:50:42;;;;;;;3.50;3.10;;;;;;;24.25;37.67;101076.36;107607;1247;72740;-74
2022/06/07 07:53:13;;;;;;;6.30;2.80;;;;;;;24.28;37.59;101071.70;107656;1247;62497;-76
2022/06/07 07:55:48;;;;;;;3.90;2.10;;;;;;;24.28;36.82;101070.02;107415;1250;59119;-75
2022/06/07 07:58:20;;;;;;;5.50;2.30;;;;;;;24.44;37.76;101072.11;107484;1247;73171;-75
2022/06/07 08:00:50;;;;;;;6.00;2.70;;;;;;;24.57;37.44;101065.92;107372;1247;60765;-76
2022/06/07 08:03:20;;;;;;;3.90;2.00;;;;;;;24.66;36.35;101068.84;107339;1248;57913;-71
2022/06/07 08:06:12;;;;;;;4.00;1.80;;;;;;;24.79;35.36;101064.89;107665;1247;62112;-74
2022/06/07 08:08:41;;;;;;;4.50;2.20;;;;;;;25.01;34.89;101064.62;107610;1247;60860;-74
2022/06/07 08:11:11;;;;;;;3.30;2.00;;;;;;;25.19;35.07;101063.26;107709;1247;59933;-75
2022/06/07 08:13:40;;;;;;;3.20;1.80;;;;;;;25.32;34.00;101064.32;107523;1247;64383;-78
2022/06/07 08:16:09;;;;;;;5.00;2.30;;;;;;;25.50;34.08;101065.58;107557;1247;59766;-74
2022/06/07 08:18:39;;;;;;;4.80;2.90;;;;;;;25.42;33.53;101063.82;107549;1248;59006;-77
2022/06/07 08:21:13;;;;;;;5.00;1.90;;;;;;;25.38;33.46;101061.46;107456;1248;62199;-74
2022/06/07 08:23:42;;;;;;;10.90;2.30;;;;;;;25.19;33.24;101063.05;107607;1247;61615;-73
2022/06/07 08:26:11;;;;;;;2.70;1.90;;;;;;;25.35;34.20;101059.07;107652;1247;68649;-75
2022/06/07 08:28:45;;;;;;;3.70;1.70;;;;;;;25.64;33.98;101057.54;107601;1247;65091;-76
2022/06/07 08:31:21;;;;;;;5.10;1.90;;;;;;;25.82;32.12;101055.73;107583;1247;62539;-75
2022/06/07 08:39:26;;;;;;;2.90;1.40;;;;;;;25.69;30.25;101057.74;107434;1247;62070;-75
2022/06/07 08:42:34;;;;;;;3.80;1.60;;;;;;;25.66;29.85;101057.61;107730;1247;69798;-74
2022/06/07 08:45:31;;;;;;;3.60;1.50;;;;;;;25.76;30.60;101056.16;107681;1246;75190;-76
2022/06/07 08:48:32;;;;;;;2.90;1.60;;;;;;;25.68;29.84;101055.73;107376;1248;62338;-74
2022/06/07 08:51:22;;;;;;;2.20;1.30;;;;;;;25.83;30.19;101054.66;107654;1247;59164;-75
2022/06/07 08:53:58;;;;;;;2.50;1.30;;;;;;;26.07;29.74;101050.80;107620;1247;62163;-78
2022/06/07 08:56:32;;;;;;;3.20;1.60;;;;;;;26.22;28.61;101046.23;107558;1247;72299;-76
2022/06/07 08:59:14;;;;;;;4.00;1.50;;;;;;;26.29;27.90;101044.30;107545;1247;60385;-76
2022/06/07 09:01:58;;;;;;;5.10;1.60;;;;;;;26.54;28.23;101045.38;107619;1247;64854;-75
2022/06/07 09:04:29;;;;;;;4.30;1.70;;;;;;;26.83;29.16;101044.52;107663;1247;60559;-72
2022/06/07 09:07:05;;;;;;;2.40;1.50;;;;;;;27.01;28.09;101043.20;107591;1247;60360;-74
2022/06/07 09:12:30;;;;;;;3.30;1.30;;;;;;;26.83;29.16;101044.40;107764;1247;72557;-75
2022/06/07 09:15:16;;;;;;;3.60;1.80;;;;;;;27.01;29.55;101041.84;107762;1247;71383;-74
2022/06/07 09:17:51;;;;;;;2.10;1.60;;;;;;;27.23;28.38;101036.46;107510;1250;74218;-78
2022/06/07 09:20:48;;;;;;;3.50;1.60;;;;;;;27.08;28.26;101032.30;107696;1247;58161;-77
2022/06/07 09:23:32;;;;;;;5.00;1.80;;;;;;;26.93;28.46;101025.95;107685;1247;58686;-73
2022/06/07 09:26:27;;;;;;;3.60;2.30;;;;;;;27.05;28.71;101023.55;107534;1247;73074;-77
2022/06/07 09:29:13;;;;;;;3.90;2.00;;;;;;;26.87;29.05;101020.80;107629;1247;72814;-76
2022/06/07 09:31:45;;;;;;;5.50;1.80;;;;;;;26.85;29.51;101018.67;107521;1248;60470;-73
2022/06/07 09:34:26;;;;;;;4.10;1.90;;;;;;;26.95;28.97;101016.04;107695;1247;63267;-76
2022/06/07 09:37:06;;;;;;;3.70;1.70;;;;;;;27.06;28.48;101010.90;107736;1247;59083;-76
2022/06/07 09:39:40;;;;;;;3.00;1.60;;;;;;;27.10;28.32;101006.02;107700;1247;57824;-71
2022/06/07 09:42:31;;;;;;;2.80;1.50;;;;;;;27.12;28.80;100999.67;107775;1247;72671;-75
2022/06/07 09:45:14;;;;;;;3.40;1.50;;;;;;;27.15;29.16;100999.83;107541;1250;62446;-74
2022/06/07 09:47:43;;;;;;;3.70;1.60;;;;;;;27.02;29.54;101003.45;107682;1247;60037;-74
2022/06/07 09:50:37;;;;;;;5.80;1.70;;;;;;;27.29;29.65;101003.60;107220;1247;73134;-76
2022/06/07 09:53:15;;;;;;;3.40;1.60;;;;;;;27.52;29.36;101007.05;107684;1247;58971;-77
2022/06/07 09:56:06;;;;;;;1.60;1.30;;;;;;;27.46;29.09;101000.55;107676;1247;58987;-73
2022/06/07 09:58:49;;;;;;;2.70;1.30;;;;;;;27.23;28.99;100996.98;107624;1247;62179;-73
2022/06/07 10:01:31;;;;;;;2.40;1.60;;;;;;;27.41;28.70;100992.48;107645;1247;72381;-74
2022/06/07 10:04:29;;;;;;;5.70;1.90;;;;;;;27.53;29.11;100994.73;107686;1247;60826;-74
2022/06/07 10:07:09;;;;;;;2.50;1.70;;;;;;;27.73;28.52;100990.70;107571;1247;72295;-74
2022/06/07 10:09:47;;;;;;;2.60;1.60;;;;;;;27.82;28.34;100989.61;107595;1247;57414;-77
2022/06/07 10:12:42;;;;;;;3.30;1.70;;;;;;;27.84;28.75;100991.03;107812;1247;61322;-76
2022/06/07 10:15:38;;;;;;;4.70;1.70;;;;;;;27.90;28.31;100988.31;107717;1247;73275;-76
2022/06/07 10:18:27;;;;;;;4.30;1.60;;;;;;;27.91;28.47;100985.20;107696;1247;72107;-77
2022/06/07 10:21:28;;;;;;;2.00;1.50;;;;;;;27.50;28.64;100983.95;107770;1247;59867;-76
2022/06/07 10:24:07;;;;;;;3.20;1.60;;;;;;;27.24;29.31;100979.57;107646;1247;62503;-75
2022/06/07 10:27:08;;;;;;;5.40;1.50;;;;;;;27.51;29.44;100978.72;107777;1247;58970;-78
2022/06/07 10:29:47;;;;;;;3.00;1.50;;;;;;;28.05;29.33;100975.65;107663;1247;60221;-73
2022/06/07 10:32:22;;;;;;;3.20;1.60;;;;;;;28.67;28.49;100969.64;107688;1247;62770;-74
2022/06/07 10:35:15;;;;;;;2.90;1.40;;;;;;;29.06;27.03;100965.14;107721;1247;71455;-80
2022/06/07 10:38:49;;;;;;;2.20;1.40;;;;;;;29.06;26.88;100959.25;107640;1247;72622;-75
2022/06/07 10:42:00;;;;;;;5.80;1.80;;;;;;;28.93;26.63;100957.42;107467;1248;63514;-77
2022/06/07 10:45:04;;;;;;;4.00;1.70;;;;;;;29.26;26.21;100952.00;107681;1247;58834;-76
2022/06/07 10:47:45;;;;;;;2.90;1.90;;;;;;;29.40;25.85;100950.13;107596;1247;61269;-75
2022/06/07 10:50:52;;;;;;;2.20;1.50;;;;;;;29.78;25.95;100946.11;107773;1247;73187;-76
2022/06/07 10:53:45;;;;;;;3.60;2.10;;;;;;;30.27;25.30;100942.31;107679;1247;72538;-76
2022/06/07 10:56:37;;;;;;;3.50;2.40;;;;;;;29.97;24.81;100941.66;107843;1247;71119;-76
2022/06/07 10:59:18;;;;;;;2.50;1.80;;;;;;;30.56;24.42;100943.73;107620;1247;63958;-76
2022/06/07 11:01:57;;;;;;;3.30;2.00;;;;;;;30.38;24.71;100943.10;107451;1247;61370;-80
2022/06/07 11:10:37;;;;;;;3.10;1.90;;;;;;;30.08;24.52;100932.42;107678;1247;61710;-79
2022/06/07 11:13:46;;;;;;;4.60;1.80;;;;;;;29.79;25.06;100928.05;107840;1247;60105;-79
2022/06/07 11:16:32;;;;;;;3.80;1.70;;;;;;;30.27;24.74;100929.29;107592;1247;73178;-76
2022/06/07 11:19:03;;;;;;;4.00;2.00;;;;;;;30.10;24.63;100927.33;107573;1247;59646;-76
2022/06/07 11:21:37;;;;;;;4.50;2.20;;;;;;;30.28;24.86;100927.22;107651;1247;59059;-84
2022/06/07 11:24:18;;;;;;;4.80;2.00;;;;;;;30.41;24.56;100924.20;107674;1249;62973;-77
2022/06/07 11:26:50;;;;;;;3.50;1.60;;;;;;;29.54;24.91;100924.67;107539;1248;70546;-81
2022/06/07 11:29:24;;;;;;;4.90;1.70;;;;;;;29.24;25.29;100919.79;107744;1247;59241;-78
2022/06/07 11:31:54;;;;;;;3.70;1.60;;;;;;;28.82;25.50;100914.54;107868;1247;62853;-76
2022/06/07 11:34:29;;;;;;;4.60;1.80;;;;;;;28.94;25.92;100915.15;109798;1246;57802;-77
2022/06/07 11:37:07;;;;;;;4.30;2.10;;;;;;;28.73;26.28;100919.12;109197;1246;59157;-74
2022/06/07 11:39:39;;;;;;;2.80;1.60;;;;;;;28.55;26.97;100918.39;107908;1247;62856;-77
2022/06/07 11:42:15;;;;;;;15.00;2.60;;;;;;;28.23;27.66;100919.23;107900;1247;61611;-78
2022/06/07 11:44:50;;;;;;;8.80;2.10;;;;;;;28.33;27.53;100915.80;107725;1248;70371;-77
2022/06/07 11:47:27;;;;;;;2.10;1.60;;;;;;;28.43;27.05;100911.36;107634;1249;64412;-76
2022/06/07 11:50:01;;;;;;;2.30;1.80;;;;;;;28.29;26.87;100905.27;107765;1247;60276;-78
2022/06/07 11:52:34;;;;;;;4.60;1.90;;;;;;;28.12;27.21;100900.70;107671;1247;60955;-77
2022/06/07 11:55:18;;;;;;;3.90;1.70;;;;;;;28.49;27.00;100897.40;107679;1247;63394;-76
2022/06/07 11:57:54;;;;;;;3.50;1.70;;;;;;;28.84;26.85;100900.79;107596;1247;71407;-76
2022/06/07 12:00:23;;;;;;;6.00;1.70;;;;;;;28.68;27.25;100898.14;107632;1247;71400;-77
2022/06/07 12:02:58;;;;;;;9.10;2.10;;;;;;;28.46;27.01;100898.67;107555;1247;74242;-78
2022/06/07 12:05:40;;;;;;;5.10;2.20;;;;;;;28.48;26.68;100893.83;107604;1247;61613;-77
2022/06/07 12:08:53;;;;;;;4.00;1.70;;;;;;;29.47;26.21;100893.69;107593;1247;61580;-77
2022/06/07 12:11:27;;;;;;;6.40;1.60;;;;;;;30.55;24.26;100889.39;107541;1247;62630;-79
2022/06/07 12:14:05;;;;;;;3.70;1.50;;;;;;;31.59;22.98;100888.65;107369;1247;71625;-78
2022/06/07 12:16:35;;;;;;;3.90;1.60;;;;;;;31.86;22.18;100886.33;107683;1247;71210;-74
2022/06/07 12:19:21;;;;;;;3.70;1.40;;;;;;;32.60;21.77;100886.11;107430;1246;74169;-75
2022/06/07 12:21:57;;;;;;;3.50;1.30;;;;;;;32.46;20.91;100883.23;107607;1247;61723;-78
2022/06/07 12:24:28;;;;;;;3.10;1.20;;;;;;;31.62;21.15;100882.41;107700;1246;58974;-78
2022/06/07 12:27:21;;;;;;;3.40;1.30;;;;;;;31.53;21.56;100876.67;107634;1247;73692;-76
2022/06/07 12:29:53;;;;;;;2.60;1.10;;;;;;;31.43;22.07;100870.40;107610;1248;71830;-78
2022/06/07 12:32:36;;;;;;;6.20;1.70;;;;;;;32.01;21.42;100866.55;107633;1247;60900;-77
2022/06/07 12:35:04;;;;;;;3.90;1.30;;;;;;;32.18;20.69;100864.00;107515;1247;64921;-77
2022/06/07 12:37:35;;;;;;;4.40;1.60;;;;;;;32.17;20.63;100864.68;107706;1247;57516;-78
2022/06/07 12:40:24;;;;;;;5.30;1.50;;;;;;;31.01;21.52;100865.84;107619;1247;58896;-76
2022/06/07 12:42:53;;;;;;;3.90;2.90;;;;;;;30.52;22.64;100862.69;107671;1247;73565;-74
2022/06/07 12:45:34;;;;;;;4.30;2.20;;;;;;;29.90;22.77;100863.69;107941;1247;62187;-75
2022/06/07 12:48:17;;;;;;;3.90;1.40;;;;;;;29.18;23.72;100859.88;107817;1247;59132;-79
2022/06/07 12:50:47;;;;;;;3.70;1.20;;;;;;;29.18;23.55;100860.84;107681;1247;73860;-76
2022/06/07 12:53:28;;;;;;;3.40;1.80;;;;;;;29.77;23.04;100856.48;107444;1247;61418;-73
2022/06/07 12:56:11;;;;;;;3.40;1.40;;;;;;;30.70;21.93;100854.41;107701;1247;62484;-77
2022/06/07 12:58:52;;;;;;;4.90;1.50;;;;;;;30.85;22.06;100854.48;107710;1247;63572;-78
2022/06/07 13:01:39;;;;;;;6.60;1.40;;;;;;;31.70;21.04;100853.05;107635;1247;72197;-77
2022/06/07 13:04:35;;;;;;;4.40;1.50;;;;;;;32.66;20.06;100850.15;107500;1247;60500;-80
2022/06/07 13:07:26;;;;;;;3.20;1.20;;;;;;;32.31;19.46;100849.98;107510;1247;65243;-78
2022/06/07 13:10:26;;;;;;;2.00;1.20;;;;;;;32.59;18.70;100846.26;107796;1247;61370;-73
2022/06/07 13:12:59;;;;;;;1.30;0.90;;;;;;;32.71;18.96;100846.24;107499;1248;58526;-76
2022/06/07 13:15:50;;;;;;;6.40;1.30;;;;;;;33.61;17.97;100842.92;107693;1247;73557;-77
2022/06/07 13:18:36;;;;;;;2.00;1.20;;;;;;;32.07;19.40;100843.86;107709;1247;72566;-78
2022/06/07 13:21:22;;;;;;;1.90;1.20;;;;;;;32.96;18.85;100841.83;107699;1247;60357;-78
2022/06/07 13:23:56;;;;;;;1.10;1.00;;;;;;;32.36;19.19;100835.35;107615;1247;62485;-78
2022/06/07 13:26:50;;;;;;;2.50;1.40;;;;;;;32.84;19.11;100836.00;107556;1247;60372;-79
2022/06/07 13:29:23;;;;;;;5.60;2.10;;;;;;;33.34;18.58;100836.04;107603;1247;61582;-77
2022/06/07 13:31:59;;;;;;;6.50;1.20;;;;;;;33.42;18.16;100835.10;107685;1247;74254;-79
2022/06/07 13:35:06;;;;;;;3.90;1.40;;;;;;;34.58;17.19;100832.61;107586;1247;62095;-80
2022/06/07 13:37:35;;;;;;;3.30;1.50;;;;;;;33.54;17.99;100834.48;107452;1247;69774;-75
2022/06/07 13:40:25;;;;;;;4.80;1.50;;;;;;;32.68;18.37;100834.13;107520;1247;73735;-72
2022/06/07 13:43:12;;;;;;;2.40;1.30;;;;;;;32.75;18.88;100840.73;107378;1247;60961;-75
2022/06/07 13:45:52;;;;;;;3.40;1.70;;;;;;;33.25;18.92;100838.41;107701;1247;57467;-79
2022/06/07 13:53:21;;;;;;;1.60;1.10;;;;;;;33.65;18.77;100837.38;107448;1247;71916;-77
2022/06/07 13:54:21;;;;;;;8.70;1.40;;;;;;;34.31;17.79;100833.89;107634;1250;59532;-77
2022/06/07 13:56:51;;;;;;;1.50;1.10;;;;;;;34.25;18.06;100834.08;107411;1250;73208;-77
2022/06/07 13:59:20;;;;;;;3.80;1.50;;;;;;;34.10;17.65;100831.37;107120;1250;59205;-78
2022/06/07 14:01:52;;;;;;;3.70;1.30;;;;;;;33.74;17.81;100832.99;107436;1249;59006;-75
2022/06/07 14:04:32;;;;;;;3.20;1.10;;;;;;;33.54;17.93;100829.40;107416;1250;72008;-79
2022/06/07 14:07:02;;;;;;;5.60;1.30;;;;;;;32.93;18.57;100822.15;107578;1250;71887;-77
2022/06/07 14:09:31;;;;;;;2.50;1.10;;;;;;;33.01;18.64;100820.50;107145;1250;60895;-81
2022/06/07 14:12:01;;;;;;;3.90;1.50;;;;;;;32.36;19.03;100826.19;107500;1249;73088;-77
2022/06/07 14:14:30;;;;;;;3.60;1.30;;;;;;;32.92;18.82;100817.08;107538;1250;61320;-79
2022/06/07 14:17:18;;;;;;;4.90;1.60;;;;;;;32.54;18.93;100817.41;107538;1249;61309;-77
2022/06/07 14:19:52;;;;;;;2.20;1.10;;;;;;;33.79;17.84;100812.61;107713;1249;72962;-79
2022/06/07 14:22:27;;;;;;;3.30;1.00;;;;;;;33.39;18.20;100813.61;107594;1247;71996;-81
2022/06/07 14:24:57;;;;;;;3.30;1.80;;;;;;;33.75;18.14;100814.52;107500;1250;70240;-82
2022/06/07 14:27:30;;;;;;;3.40;1.40;;;;;;;32.79;19.17;100810.42;107303;1250;64094;-78
2022/06/07 14:29:59;;;;;;;7.30;1.40;;;;;;;32.43;19.84;100808.64;107468;1250;60451;-78
2022/06/07 14:32:38;;;;;;;4.80;1.50;;;;;;;31.33;20.98;100809.18;107392;1250;60013;-79
2022/06/07 14:35:30;;;;;;;2.50;1.40;;;;;;;31.24;20.93;100807.33;107451;1250;73485;-80
2022/06/07 14:38:01;;;;;;;3.90;1.40;;;;;;;31.69;20.46;100803.91;107592;1250;62212;-75
2022/06/07 14:40:39;;;;;;;3.80;1.50;;;;;;;32.48;19.57;100799.16;107545;1249;69829;-79
2022/06/07 14:43:15;;;;;;;2.60;1.20;;;;;;;33.34;18.62;100791.14;107960;1249;72727;-80
2022/06/07 14:46:02;;;;;;;2.30;1.30;;;;;;;33.77;18.65;100785.29;107736;1250;59945;-78
2022/06/07 14:49:03;;;;;;;4.70;1.40;;;;;;;34.97;17.58;100786.86;107511;1250;60307;-77
2022/06/07 14:51:40;;;;;;;3.90;1.10;;;;;;;35.18;17.12;100778.17;107588;1249;72811;-81
2022/06/07 14:54:32;;;;;;;3.30;1.10;;;;;;;36.18;16.45;100774.86;107963;1247;61937;-78
2022/06/07 14:57:13;;;;;;;5.90;1.60;;;;;;;36.65;16.01;100774.15;107765;1247;70430;-80
2022/06/07 14:59:42;;;;;;;2.70;1.20;;;;;;;36.25;16.61;100770.48;107712;1247;63618;-79
2022/06/07 15:02:25;;;;;;;4.60;1.20;;;;;;;34.54;17.33;100773.10;107756;1247;61406;-83
2022/06/07 15:04:57;;;;;;;2.90;1.60;;;;;;;35.65;16.63;100775.45;107385;1247;61090;-78
2022/06/07 15:07:49;;;;;;;4.90;1.40;;;;;;;35.21;16.56;100775.98;107448;1247;74206;-75
2022/06/07 15:10:24;;;;;;;5.70;1.80;;;;;;;34.52;16.56;100767.92;107598;1247;70422;-74
2022/06/07 15:12:55;;;;;;;2.00;1.20;;;;;;;34.36;16.71;100763.27;107409;1248;60360;-79
2022/06/07 15:15:25;;;;;;;2.70;1.40;;;;;;;34.41;16.77;100764.84;107641;1247;63343;-80
2022/06/07 15:18:01;;;;;;;3.50;1.40;;;;;;;33.50;17.90;100759.61;107413;1248;58321;-76
2022/06/07 15:20:36;;;;;;;3.40;1.40;;;;;;;33.36;17.99;100757.23;107565;1247;59474;-77
2022/06/07 15:23:31;;;;;;;4.00;1.30;;;;;;;34.29;17.43;100757.77;107292;1248;63113;-77
2022/06/07 15:26:00;;;;;;;2.60;1.30;;;;;;;34.83;17.26;100755.79;107592;1247;60894;-78
2022/06/07 15:28:29;;;;;;;4.20;1.40;;;;;;;34.64;17.40;100753.14;107428;1247;60022;-80
2022/06/07 15:30:59;;;;;;;3.80;1.30;;;;;;;34.56;17.42;100752.24;107705;1247;73084;-79
2022/06/07 15:33:28;;;;;;;5.60;1.40;;;;;;;33.87;17.79;100745.52;107732;1247;58544;-77
2022/06/07 15:35:58;;;;;;;2.90;1.60;;;;;;;34.24;17.95;100745.05;107184;1249;60497;-78
2022/06/07 15:38:28;;;;;;;1.60;1.10;;;;;;;34.31;17.44;100747.79;107642;1247;63455;-77
2022/06/07 15:40:56;;;;;;;1.90;1.40;;;;;;;34.29;17.38;100750.93;107537;1247;72272;-76
2022/06/07 15:43:29;;;;;;;5.90;2.10;;;;;;;34.84;17.05;100746.02;107325;1248;59753;-77
2022/06/07 15:45:58;;;;;;;2.40;1.20;;;;;;;34.37;17.80;100741.98;107326;1247;73867;-81
2022/06/07 15:48:27;;;;;;;4.10;1.40;;;;;;;34.92;17.20;100738.77;107543;1247;59060;-77
2022/06/07 15:50:59;;;;;;;4.40;1.60;;;;;;;35.36;16.71;100739.73;107266;1249;59086;-77
2022/06/07 15:53:33;;;;;;;4.60;1.90;;;;;;;35.01;17.23;100739.69;107631;1247;62279;-79
2022/06/07 15:56:06;;;;;;;4.60;1.20;;;;;;;35.07;17.59;100738.77;107631;1247;61689;-78
2022/06/07 16:01:25;;;;;;;2.90;1.30;;;;;;;35.57;16.81;100735.98;107493;1247;64304;-79
2022/06/07 16:03:55;;;;;;;;;;;;;;;35.45;16.85;100736.42;107533;1247;58320;-79
2022/06/07 16:06:30;;;;;;;4.10;1.90;;;;;;;35.10;17.22;100740.63;107295;1247;61046;-81
2022/06/07 16:09:02;;;;;;;3.40;1.40;;;;;;;35.00;17.38;100740.02;107647;1247;62495;-76
2022/06/07 16:11:32;;;;;;;6.40;1.70;;;;;;;35.21;17.36;100743.08;107649;1247;60873;-79